Airfield :
LOGIN :

Register | Disclaimer

   EN    FR    IT 

 










Legend :    VFR   Marginal VFR   IFR   Intensive IFR   Very Intensive IFR
Visi :
Ceiling :
>= 8 km
>= 3000ft
5 to 8 km
1000 to 3000 ft
1500m to 5 km
500 to 1000 ft
800 to 1500m
200 to 500 ft
< 800m
< 200 ft
Symbols :   Thunderstorms  Fog  Heavy snow  Heavy precipitations  Wind > 20 kt
SIGMETs :     Misc.  Thunderstorms  Icing  Turbulence  Mountain Waves  Volcanic Ashes






- Airport Elevation : 1947 ft
- IATA code : OBF


EDMO - Oberpfaffenhofen

CURRENT METAR :
  • 171850Z 27011KT 9999 BKN036 03/M01 Q1033

EXPIRED METARs :
  • 171820Z 27011KT 9999 SCT037 BKN044 03/M01 Q1033
  • 171750Z 26013KT 9999 SCT018 BKN052 03/M00 Q1033
  • 171720Z 27012KT 9999 BKN032 03/M00 Q1032
  • 171650Z 26012KT 9999 SCT033 BKN043 04/M00 Q1032
  • 171620Z 26012KT 9999 FEW021 SCT042 BKN052 04/M00 Q1032

TAF TAF EDMO
Valid from the 17 at 18:00 until the 18 at 03:00 UTC


171700Z 1718/1803 26012KT 9999 SCT020 BKN030
TEMPO 1721/1724 4000 -SNRA BKN012
BECMG 1800/1802 25006KT
TEMPO 1800/1803 2500 -SN BKN008



MET'MAP, your aeronautical weather chart ! - Copyright ORBIFLY December 2007 - Disclaimer

ORBIFLY MET'MAP TEAM :

Programming & Development : Alexandra Zaïnal
Concept & original design : Baudouin d'Aumeries
Assistance for programming : Marc-Olivier Méhu
Technical & hardware support : Manuel Goepfert

Contact : metmap@orbifly.com




SOURCES & CREDITS :

   NOAA